Nearby METAR Reports

 

KALB - Albany, New York, USA
Distance from station: E 47mi, 75km
Updated: Sat, 10-Apr-2021 6:51am EDT
Mostly cloudy
Mostly cloudy
 Wind from S
Wind: S 7 mph , 11 km/h
Temperature: 48°F , 9°C
Wind Chill: 45°F , 7°C
Dew Point: 43°F , 6°C
Humidity: 82%
Barometer: 30.01 inHg , 1016.3 hPa
Clouds: Mostly cloudy
Visibility: 10 miles , 16 km
Cloud details: Mostly cloudy 3300 ft
Mostly cloudy 6500 ft
2021/04/10 10:51 KALB 101051Z 17006KT 10SM BKN033 BKN065 09/06 A3001 RMK AO2 SLP161 T00940061
KSLK - Saranac Lake, New York, USA
Distance from station: N 110mi, 177km
Updated: Sat, 10-Apr-2021 6:51am EDT
Clear
Clear
 Wind from NNE
Wind: NNE 3 mph , 6 km/h
Temperature: 36°F , 2°C
Dew Point: 36°F , 2°C
Humidity: 100%
Barometer: 29.96 inHg , 1014.6 hPa
Clouds: Clear
Visibility: 10 miles , 16 km
2021/04/10 10:51 KSLK 101051Z AUTO 03003KT 10SM CLR 02/02 A2996 RMK AO2 SLP150 T00220017
 
KSYR - Syracuse, New York, USA
Distance from station: W 73mi, 117km
Updated: Sat, 10-Apr-2021 6:54am EDT
Few Clouds
Few Clouds
 Wind from E
Wind: E 5 mph , 7 km/h
Temperature: 46°F , 8°C
Wind Chill: 44°F , 7°C
Dew Point: 43°F , 6°C
Humidity: 87%
Barometer: 29.96 inHg , 1014.6 hPa
Clouds: Few Clouds
Visibility: 10 miles , 16 km
Cloud details: Few Clouds 20000 ft
2021/04/10 10:54 KSYR 101054Z 08004KT 10SM FEW200 08/06 A2996 RMK AO2 SLP143 T00780056
KBGM - Binghamton, New York, USA
Distance from station: SW 78mi, 126km
Updated: Sat, 10-Apr-2021 6:53am EDT
Overcast
Overcast
 Wind from SW
Wind: SW 8 mph , 13 km/h
Temperature: 52°F , 11°C
Dew Point: 48°F , 9°C
Humidity: 88%
Barometer: 30.00 inHg , 1015.9 hPa
Clouds: Overcast
Visibility: 10 miles , 16 km
Cloud details: Overcast 700 ft
2021/04/10 10:53 KBGM 101053Z 22007KT 10SM OVC007 11/09 A3000 RMK AO2 SLP159 T01060089 $
 
KRME - Rome, New York, USA
Distance from station: WNW 43mi, 69km
Updated: Sat, 10-Apr-2021 6:53am EDT
Clear
Clear
 Wind from calm
Wind: Calm
Temperature: 48°F , 9°C
Dew Point: 45°F , 7°C
Humidity: 87%
Barometer: 30.00 inHg , 1015.9 hPa
Clouds: Clear
Visibility: 10 miles , 16 km
2021/04/10 10:53 KRME 101053Z 00000KT 10SM CLR 09/07 A3000 RMK AO2 SLP157 T00890067
KJFK - New York, New York, USA
Distance from station: SSE 159mi, 256km
Updated: Sat, 10-Apr-2021 6:51am EDT
Light drizzle, Overcast
Light drizzle, Overcast
 Wind from calm
Wind: Calm
Temperature: 52°F , 11°C
Dew Point: 48°F , 9°C
Humidity: 88%
Barometer: 30.06 inHg , 1017.9 hPa
Summary: Light Drizzle
Clouds: Overcast
Visibility: 10 miles , 16 km
Cloud details: Mostly cloudy 1800 ft
Mostly cloudy 2900 ft
Mostly cloudy 3900 ft
Overcast 13000 ft
2021/04/10 10:51 KJFK 101051Z 00000KT 10SM -DZ BKN018 BKN029 BKN039 OVC130 11/09 A3006 RMK AO2 DZB42 SLP178 P0000 T01060089
 
KROC - Rochester, New York, USA
Distance from station: W 150mi, 242km
Updated: Sat, 10-Apr-2021 6:54am EDT
Clear
Clear
 Wind from SSW
Wind: SSW 8 mph , 13 km/h
Temperature: 54°F , 12°C
Dew Point: 48°F , 9°C
Humidity: 82%
Barometer: 29.90 inHg , 1012.5 hPa
Clouds: Clear
Visibility: 10 miles , 16 km
2021/04/10 10:54 KROC 101054Z 20007KT 10SM CLR 12/09 A2990 RMK AO2 SLP126 T01170089 $
KART - Watertown, New York, USA
Distance from station: NNW 103mi, 166km
Updated: Sat, 10-Apr-2021 6:56am EDT
Clear
Clear
 Wind from E
Wind: E 5 mph , 7 km/h
Temperature: 37°F , 3°C
Wind Chill: 33°F , 1°C
Dew Point: 36°F , 2°C
Humidity: 93%
Barometer: 29.95 inHg , 1014.2 hPa
Clouds: Clear
Visibility: 10 miles , 16 km
2021/04/10 10:56 KART 101056Z AUTO 09004KT 10SM CLR 03/02 A2995 RMK AO2 SLP142 T00330022
 
KELM - Elmira-Corning, New York, USA
Distance from station: SSW 121mi, 195km
Updated: Sat, 10-Apr-2021 6:53am EDT
Overcast
Overcast
 Wind from SSW
Wind: SSW 3 mph , 6 km/h
Temperature: 55°F , 13°C
Dew Point: 48°F , 9°C
Humidity: 77%
Barometer: 29.97 inHg , 1014.9 hPa
Clouds: Overcast
Visibility: 10 miles , 16 km
Cloud details: Overcast 1600 ft
2021/04/10 10:53 KELM 101053Z 20003KT 10SM OVC016 13/09 A2997 RMK AO2 SLP148 T01330094
KJHW - Jamestown, New York, USA
Distance from station: SW 238mi, 383km
Updated: Sat, 10-Apr-2021 6:56am EDT
Clear
Clear
 Wind from S
Wind: S 16 mph , 26 km/h, Gust: 22 mph , 35 km/h
Temperature: 48°F , 9°C
Wind Chill: 42°F , 6°C
Dew Point: 48°F , 9°C
Humidity: 100%
Barometer: 29.91 inHg , 1012.9 hPa
Clouds: Clear
Visibility: 10 miles , 16 km
2021/04/10 10:56 KJHW 101056Z AUTO 17014G19KT 10SM CLR 09/09 A2991 RMK AO2 SLP134 T00940089
 
KMSS - Massena, New York, USA
Distance from station: N 141mi, 232km
Updated: Sat, 10-Apr-2021 6:53am EDT
Clear
Clear
 Wind from calm
Wind: Calm
Temperature: 45°F , 7°C
Dew Point: 39°F , 4°C
Humidity: 81%
Barometer: 29.97 inHg , 1014.9 hPa
Clouds: Clear
Visibility: 10 miles , 16 km
2021/04/10 10:53 KMSS 101053Z AUTO 00000KT 10SM CLR 07/04 A2997 RMK AO2 SLP151 T00670039
KBUF - Buffalo, New York, USA
Distance from station: W 204mi, 328km
Updated: Sat, 10-Apr-2021 6:54am EDT
Partly cloudy
Partly cloudy
 Wind from SSE
Wind: SSE 6 mph , 9 km/h
Temperature: 54°F , 12°C
Dew Point: 46°F , 8°C
Humidity: 77%
Barometer: 29.87 inHg , 1011.5 hPa
Clouds: Partly cloudy
Visibility: 10 miles , 16 km
Cloud details: Few Clouds 8000 ft
Partly cloudy 25000 ft
2021/04/10 10:54 KBUF 101054Z 16005KT 10SM FEW080 SCT250 12/08 A2987 RMK AO2 SLP116 T01220083 $